Time;durP1;ratioP1;P1;durP2;ratioP2;P2;SDS_P1;SDS_P2;PMS_P1;PMS_P2;Temp;Humidity;BMP_temperature;BMP_pressure;BME280_temperature;BME280_humidity;BME280_pressure;Samples;Min_cycle;Max_cycle;Signal;HPM_P1;HPM_P2
2020/12/26 00:01:16;;;;;;;13.43;8.82;;;0.40;99.90;;;;;;4993169;28;20299;-83
2020/12/26 00:03:42;;;;;;;13.30;9.93;;;0.30;99.90;;;;;;4993064;28;20296;-83
2020/12/26 00:06:12;;;;;;;11.48;8.63;;;0.20;99.90;;;;;;4991136;28;20255;-84
2020/12/26 00:08:39;;;;;;;14.32;9.73;;;0.30;99.90;;;;;;5001039;28;20326;-83
2020/12/26 00:11:08;;;;;;;14.50;9.70;;;0.20;99.90;;;;;;5013259;28;20215;-84
2020/12/26 00:13:35;;;;;;;10.38;8.05;;;0.20;99.90;;;;;;5016639;28;20294;-83
2020/12/26 00:16:04;;;;;;;13.40;9.75;;;0.20;99.90;;;;;;5016587;28;20200;-83
2020/12/26 00:18:31;;;;;;;11.50;9.23;;;0.10;99.90;;;;;;5016592;28;20215;-83
2020/12/26 00:20:57;;;;;;;11.32;8.90;;;0.10;99.90;;;;;;5015029;28;20207;-84
2020/12/26 00:23:23;;;;;;;10.10;8.63;;;0.10;99.90;;;;;;5015957;28;20211;-83
2020/12/26 00:25:50;;;;;;;12.00;9.27;;;0.10;99.90;;;;;;5015978;28;20290;-84
2020/12/26 00:28:16;;;;;;;16.88;12.32;;;0.00;99.90;;;;;;5016399;28;20636;-83
2020/12/26 00:30:43;;;;;;;16.05;12.60;;;-0.10;99.90;;;;;;5016262;28;20269;-83
2020/12/26 00:33:10;;;;;;;15.68;11.05;;;-0.10;99.90;;;;;;5016249;28;20616;-84
2020/12/26 00:35:36;;;;;;;16.13;10.15;;;-0.10;99.90;;;;;;5014815;28;20298;-83
2020/12/26 00:38:03;;;;;;;15.32;9.55;;;-0.20;99.90;;;;;;5015942;28;20266;-84
2020/12/26 00:40:29;;;;;;;14.60;9.45;;;-0.20;99.90;;;;;;5015433;28;20290;-84
2020/12/26 00:42:55;;;;;;;13.48;10.20;;;-0.10;99.90;;;;;;5015915;28;20242;-84
2020/12/26 00:45:22;;;;;;;17.83;10.43;;;-0.10;99.90;;;;;;5014752;28;20644;-83
2020/12/26 00:47:49;;;;;;;14.32;10.27;;;-0.10;99.90;;;;;;5015684;28;20238;-84
2020/12/26 00:50:16;;;;;;;15.88;9.45;;;0.00;99.90;;;;;;5015267;28;20207;-85
2020/12/26 00:52:42;;;;;;;14.93;10.00;;;0.10;99.90;;;;;;5014905;28;20298;-83
2020/12/26 00:55:08;;;;;;;17.30;9.93;;;0.20;99.90;;;;;;5015852;28;20283;-83
2020/12/26 00:57:35;;;;;;;16.60;11.70;;;0.30;99.90;;;;;;5015638;28;20231;-84
2020/12/26 01:00:01;;;;;;;15.57;10.88;;;0.30;99.90;;;;;;5015487;28;20207;-83
2020/12/26 01:02:28;;;;;;;15.38;11.80;;;0.30;99.90;;;;;;5015680;28;20294;-84
2020/12/26 01:04:55;;;;;;;18.13;10.45;;;0.40;99.90;;;;;;5015517;28;20653;-83
2020/12/26 01:07:21;;;;;;;15.63;10.57;;;0.40;99.90;;;;;;5012912;28;20269;-84
2020/12/26 01:09:47;;;;;;;15.23;10.35;;;0.40;99.90;;;;;;4998021;28;20712;-84
2020/12/26 01:12:14;;;;;;;15.35;10.05;;;0.30;99.90;;;;;;4995911;28;20298;-83
2020/12/26 01:14:42;;;;;;;14.65;10.23;;;0.30;99.90;;;;;;4995618;28;20589;-83
2020/12/26 01:17:08;;;;;;;17.30;9.43;;;0.30;99.90;;;;;;4995856;28;20211;-83
2020/12/26 01:19:35;;;;;;;14.93;10.82;;;0.30;99.90;;;;;;4995558;28;20752;-83
2020/12/26 01:22:02;;;;;;;17.45;9.93;;;0.30;99.90;;;;;;4994053;28;20287;-83
2020/12/26 01:24:28;;;;;;;20.55;11.27;;;0.30;99.90;;;;;;4995625;28;20298;-84
2020/12/26 01:26:56;;;;;;;15.10;10.38;;;0.40;99.90;;;;;;4995503;28;20232;-85
2020/12/26 01:29:23;;;;;;;15.43;10.07;;;0.40;99.90;;;;;;4995610;28;20212;-83
2020/12/26 01:31:50;;;;;;;15.60;11.88;;;0.50;99.90;;;;;;4995252;28;20304;-84
2020/12/26 01:34:16;;;;;;;13.57;11.07;;;0.50;99.90;;;;;;4994585;28;20373;-83
2020/12/26 01:36:43;;;;;;;12.82;9.85;;;0.50;99.90;;;;;;4994178;28;20243;-84
2020/12/26 01:39:10;;;;;;;17.38;9.80;;;0.50;99.90;;;;;;4995187;28;20208;-84
2020/12/26 01:41:36;;;;;;;13.20;8.88;;;0.50;99.90;;;;;;4995489;28;20800;-84
2020/12/26 01:44:03;;;;;;;15.20;9.52;;;0.50;99.90;;;;;;4995248;28;20719;-84
2020/12/26 01:46:32;;;;;;;15.70;9.50;;;0.60;99.90;;;;;;4995143;28;20229;-84
2020/12/26 01:49:00;;;;;;;12.50;9.02;;;0.60;99.90;;;;;;4995331;28;20358;-84
2020/12/26 01:51:27;;;;;;;20.48;10.90;;;0.60;99.90;;;;;;4994248;28;20643;-84
2020/12/26 01:53:54;;;;;;;12.95;10.07;;;0.60;99.90;;;;;;4994961;28;20227;-84
2020/12/26 01:56:22;;;;;;;15.48;10.15;;;0.60;99.90;;;;;;4994755;28;20290;-84
2020/12/26 01:58:48;;;;;;;13.52;8.90;;;0.60;99.90;;;;;;4994942;28;20699;-84
2020/12/26 02:01:15;;;;;;;18.50;11.43;;;0.70;99.90;;;;;;4995102;28;20208;-84
2020/12/26 02:03:42;;;;;;;17.30;10.82;;;0.70;99.90;;;;;;4995107;28;20303;-84
2020/12/26 02:06:09;;;;;;;19.92;12.02;;;0.70;99.90;;;;;;4993634;28;20680;-84
2020/12/26 02:08:36;;;;;;;13.75;10.05;;;0.80;99.90;;;;;;4994432;28;20236;-84
2020/12/26 02:11:04;;;;;;;11.93;9.60;;;0.80;99.90;;;;;;4994588;28;20303;-84
2020/12/26 02:13:32;;;;;;;14.73;11.30;;;0.80;99.90;;;;;;4994984;28;20208;-84
2020/12/26 02:16:05;;;;;;;14.02;9.43;;;0.70;99.90;;;;;;4994845;28;20207;-84
2020/12/26 02:18:32;;;;;;;10.80;9.25;;;0.80;99.90;;;;;;4994621;28;20251;-84
2020/12/26 02:20:59;;;;;;;12.63;10.15;;;0.80;99.90;;;;;;4993412;28;20778;-84
2020/12/26 02:23:26;;;;;;;15.98;9.65;;;0.80;99.90;;;;;;4994315;28;20295;-84
2020/12/26 02:25:54;;;;;;;15.23;8.95;;;1.00;99.90;;;;;;4993411;28;20208;-85
2020/12/26 02:28:21;;;;;;;14.07;10.60;;;1.00;99.90;;;;;;4994699;28;20688;-84
2020/12/26 02:30:47;;;;;;;14.90;9.25;;;0.90;99.90;;;;;;4994918;28;20682;-84
2020/12/26 02:33:14;;;;;;;13.68;9.65;;;0.90;99.90;;;;;;4998948;28;20247;-84
2020/12/26 02:35:41;;;;;;;14.02;10.18;;;1.00;99.90;;;;;;5013658;28;20211;-83
2020/12/26 02:38:07;;;;;;;14.77;9.85;;;1.00;99.90;;;;;;5014087;28;20212;-83
2020/12/26 02:40:33;;;;;;;14.25;10.88;;;0.90;99.90;;;;;;4999226;28;20295;-84
2020/12/26 02:43:01;;;;;;;14.90;10.60;;;0.90;99.90;;;;;;4976744;28;20295;-84
2020/12/26 02:45:27;;;;;;;12.60;8.68;;;0.80;99.90;;;;;;4994550;28;20639;-84
2020/12/26 02:47:53;;;;;;;11.75;8.60;;;0.80;99.90;;;;;;4994397;28;20320;-84
2020/12/26 02:50:20;;;;;;;16.60;11.63;;;0.70;99.90;;;;;;4993688;28;20294;-84
2020/12/26 02:52:46;;;;;;;13.73;10.82;;;0.70;99.90;;;;;;4993866;28;20342;-84
2020/12/26 02:55:12;;;;;;;15.18;8.38;;;0.70;99.90;;;;;;4993844;28;20205;-86
2020/12/26 02:57:39;;;;;;;13.52;8.40;;;0.70;99.90;;;;;;4994016;28;20204;-84
2020/12/26 03:00:06;;;;;;;12.32;7.55;;;0.70;99.90;;;;;;4993158;28;20216;-84
2020/12/26 03:02:32;;;;;;;9.43;7.85;;;0.70;99.90;;;;;;4992811;28;20291;-84
2020/12/26 03:04:58;;;;;;;11.27;9.15;;;0.70;99.90;;;;;;4992473;28;20304;-84
2020/12/26 03:07:25;;;;;;;18.23;8.70;;;0.70;99.90;;;;;;4992377;28;20322;-84
2020/12/26 03:09:51;;;;;;;10.07;8.35;;;0.80;99.90;;;;;;4993141;28;20327;-85
2020/12/26 03:12:17;;;;;;;14.52;7.57;;;0.80;99.90;;;;;;4993737;28;20287;-83
2020/12/26 03:14:44;;;;;;;14.15;9.95;;;0.80;99.90;;;;;;4993594;28;20298;-84
2020/12/26 03:17:11;;;;;;;13.57;7.45;;;0.70;99.90;;;;;;4993747;28;20211;-84
2020/12/26 03:19:37;;;;;;;11.65;7.70;;;0.80;99.90;;;;;;4993572;28;20287;-84
2020/12/26 03:22:04;;;;;;;9.43;7.28;;;0.80;99.90;;;;;;4992246;28;20259;-84
2020/12/26 03:24:30;;;;;;;9.43;7.97;;;0.90;99.90;;;;;;4993261;28;20294;-84
2020/12/26 03:26:57;;;;;;;12.93;7.82;;;0.90;99.90;;;;;;4993692;28;20242;-85
2020/12/26 03:29:23;;;;;;;13.95;9.05;;;0.90;99.90;;;;;;4993625;28;20286;-84
2020/12/26 03:31:49;;;;;;;12.02;7.90;;;1.00;99.90;;;;;;4993445;28;20302;-84
2020/12/26 03:34:16;;;;;;;16.92;10.52;;;1.00;99.90;;;;;;4992290;28;20295;-84
2020/12/26 03:36:43;;;;;;;15.30;8.98;;;1.00;99.90;;;;;;4992168;28;20347;-84
2020/12/26 03:39:09;;;;;;;17.35;9.38;;;1.00;99.90;;;;;;4985521;28;20236;-84
2020/12/26 03:41:35;;;;;;;10.18;7.32;;;1.10;99.90;;;;;;4993021;28;20290;-84
2020/12/26 03:44:02;;;;;;;14.77;7.38;;;1.10;99.90;;;;;;4993247;28;20291;-84
2020/12/26 03:46:28;;;;;;;10.18;8.60;;;1.10;99.90;;;;;;4993039;28;20338;-84
2020/12/26 03:48:55;;;;;;;9.85;7.45;;;1.10;99.90;;;;;;4993354;28;20362;-83
2020/12/26 03:51:22;;;;;;;11.77;7.95;;;1.10;99.90;;;;;;4989133;28;20629;-84
2020/12/26 03:53:48;;;;;;;10.43;8.82;;;1.10;99.90;;;;;;4992873;28;20231;-85
2020/12/26 03:56:16;;;;;;;14.90;8.82;;;1.20;99.90;;;;;;4992946;28;20291;-84
2020/12/26 03:58:43;;;;;;;14.52;7.45;;;1.10;99.90;;;;;;4993258;28;20235;-84
2020/12/26 04:01:10;;;;;;;11.98;7.30;;;1.10;99.90;;;;;;4993203;28;20777;-84
2020/12/26 04:03:36;;;;;;;10.27;7.55;;;1.10;99.90;;;;;;4993054;28;20291;-84
2020/12/26 04:06:03;;;;;;;10.02;7.38;;;1.10;99.90;;;;;;4991671;28;20295;-83
2020/12/26 04:08:30;;;;;;;11.77;8.98;;;1.10;99.90;;;;;;4993078;28;20335;-83
2020/12/26 04:10:56;;;;;;;10.55;7.38;;;1.10;99.90;;;;;;4992973;28;20306;-84
2020/12/26 04:13:23;;;;;;;10.40;8.60;;;1.00;99.90;;;;;;4996495;28;20291;-84
2020/12/26 04:15:50;;;;;;;11.20;8.20;;;1.00;99.90;;;;;;4993298;28;20652;-84
2020/12/26 04:18:16;;;;;;;11.13;8.82;;;1.00;99.90;;;;;;4992894;28;20205;-85
2020/12/26 04:20:42;;;;;;;12.98;9.32;;;0.90;99.90;;;;;;4992027;28;20326;-84
2020/12/26 04:23:09;;;;;;;12.35;7.00;;;0.90;99.90;;;;;;4993204;28;20354;-84
2020/12/26 04:25:36;;;;;;;9.80;7.97;;;0.80;99.90;;;;;;4991916;28;20288;-84
2020/12/26 04:28:02;;;;;;;10.50;8.07;;;0.80;99.90;;;;;;4993021;28;20327;-84
2020/12/26 04:30:29;;;;;;;11.65;7.95;;;0.90;99.90;;;;;;4992750;28;20232;-84
2020/12/26 04:32:55;;;;;;;10.20;8.25;;;0.80;99.90;;;;;;4992761;28;20291;-84
2020/12/26 04:35:22;;;;;;;14.13;7.70;;;0.90;99.90;;;;;;4992060;28;20295;-84
2020/12/26 04:37:50;;;;;;;11.00;9.00;;;0.90;99.90;;;;;;4992720;28;20756;-84
2020/12/26 04:40:17;;;;;;;9.73;7.05;;;0.90;99.90;;;;;;4992555;28;20542;-84
2020/12/26 04:42:46;;;;;;;10.90;8.13;;;0.90;99.90;;;;;;4992642;28;20235;-85
2020/12/26 04:45:12;;;;;;;12.65;8.85;;;0.90;99.90;;;;;;4985131;28;20215;-84
2020/12/26 04:47:46;;;;;;;12.63;8.75;;;0.80;99.90;;;;;;4992482;28;20243;-84
2020/12/26 04:50:13;;;;;;;12.90;8.63;;;0.80;99.90;;;;;;4992731;28;20295;-84
2020/12/26 04:52:46;;;;;;;12.75;8.32;;;0.80;99.90;;;;;;4991520;28;20291;-84
2020/12/26 04:55:13;;;;;;;11.10;6.88;;;0.80;99.90;;;;;;4992385;28;20728;-84
2020/12/26 04:57:40;;;;;;;8.70;7.57;;;0.80;99.90;;;;;;4994193;28;20291;-82
2020/12/26 05:00:07;;;;;;;10.85;8.65;;;0.80;99.90;;;;;;4996068;28;20291;-84
2020/12/26 05:02:37;;;;;;;13.35;7.63;;;0.80;99.90;;;;;;4996151;28;20299;-84
2020/12/26 05:05:04;;;;;;;12.45;9.15;;;0.70;99.90;;;;;;4996070;28;20236;-84
2020/12/26 05:07:31;;;;;;;12.07;7.32;;;0.70;99.90;;;;;;4995001;28;20303;-84
2020/12/26 05:09:58;;;;;;;12.23;8.00;;;0.70;99.90;;;;;;4995880;28;20240;-84
2020/12/26 05:12:24;;;;;;;12.45;8.10;;;0.70;99.90;;;;;;4995833;28;20723;-84
2020/12/26 05:14:51;;;;;;;18.13;11.95;;;0.70;99.90;;;;;;4996033;28;20292;-84
2020/12/26 05:17:20;;;;;;;13.88;9.32;;;0.70;99.90;;;;;;4995964;28;20212;-84
2020/12/26 05:19:47;;;;;;;15.70;9.98;;;0.80;99.90;;;;;;4996007;28;20232;-84
2020/12/26 05:22:13;;;;;;;10.38;8.05;;;0.90;99.90;;;;;;4994525;28;20283;-84
2020/12/26 05:24:40;;;;;;;15.60;9.38;;;0.90;99.90;;;;;;4995662;28;20647;-85
2020/12/26 05:27:07;;;;;;;13.75;9.70;;;1.00;99.90;;;;;;4995464;28;20232;-83
2020/12/26 05:29:36;;;;;;;31.33;16.60;;;1.00;99.90;;;;;;4995801;28;20284;-83
2020/12/26 05:32:04;;;;;;;29.98;15.38;;;1.00;99.90;;;;;;4995556;28;20679;-83
2020/12/26 05:34:34;;;;;;;34.35;16.98;;;1.00;99.90;;;;;;4994644;28;20247;-84
2020/12/26 05:37:00;;;;;;;83.82;36.70;;;1.00;99.90;;;;;;4994319;28;20232;-84
2020/12/26 05:39:31;;;;;;;32.70;16.77;;;1.00;99.90;;;;;;4995237;28;20243;-84
2020/12/26 05:41:57;;;;;;;35.95;17.20;;;1.10;99.90;;;;;;4995171;28;20294;-83
2020/12/26 05:44:29;;;;;;;22.10;12.82;;;1.10;99.90;;;;;;4995398;28;20334;-83
2020/12/26 05:46:57;;;;;;;17.75;10.32;;;1.10;99.90;;;;;;4995059;28;20235;-83
2020/12/26 05:49:30;;;;;;;14.05;8.73;;;1.10;99.90;;;;;;4995354;28;20771;-83
2020/12/26 05:52:03;;;;;;;15.38;10.57;;;1.10;99.90;;;;;;4994074;28;20768;-82
2020/12/26 05:54:31;;;;;;;14.90;9.57;;;1.20;99.90;;;;;;4995218;28;20608;-83
2020/12/26 05:57:11;;;;;;;11.70;8.20;;;1.10;99.90;;;;;;4994649;28;20751;-83
2020/12/26 05:59:40;;;;;;;15.00;9.73;;;1.10;99.90;;;;;;4995248;28;20546;-82
2020/12/26 06:02:20;;;;;;;13.43;9.10;;;1.00;99.90;;;;;;4995010;28;20255;-82
2020/12/26 06:04:52;;;;;;;17.33;9.00;;;1.00;99.90;;;;;;4993896;28;20214;-83
2020/12/26 06:07:23;;;;;;;13.38;8.23;;;1.00;99.90;;;;;;4993661;28;20582;-82
2020/12/26 06:09:53;;;;;;;13.73;8.73;;;1.00;99.90;;;;;;4994655;28;20264;-84
2020/12/26 06:12:21;;;;;;;14.77;9.88;;;1.00;99.90;;;;;;4994950;28;20211;-83
2020/12/26 06:14:49;;;;;;;17.98;9.95;;;1.00;99.90;;;;;;4994867;28;20240;-82
2020/12/26 06:17:28;;;;;;;13.27;9.23;;;1.00;99.90;;;;;;4994841;28;20295;-82
2020/12/26 06:19:56;;;;;;;14.20;10.32;;;1.00;99.90;;;;;;4994812;28;20204;-82
2020/12/26 06:22:24;;;;;;;15.48;9.60;;;0.90;99.90;;;;;;4993497;28;20295;-83
2020/12/26 06:24:50;;;;;;;12.48;8.52;;;0.90;99.90;;;;;;4994289;28;20254;-84
2020/12/26 06:27:17;;;;;;;15.02;10.60;;;0.80;99.90;;;;;;4994578;28;20319;-82
2020/12/26 06:29:44;;;;;;;13.25;9.40;;;0.70;99.90;;;;;;4994484;28;20638;-83
2020/12/26 06:32:12;;;;;;;12.65;10.32;;;0.70;99.90;;;;;;4994580;28;20578;-82
2020/12/26 06:34:41;;;;;;;11.50;8.93;;;0.60;99.90;;;;;;4993407;28;20209;-82
2020/12/26 06:37:10;;;;;;;16.65;8.77;;;0.60;99.90;;;;;;4993215;28;20208;-82
2020/12/26 06:39:38;;;;;;;20.70;11.68;;;0.50;99.90;;;;;;4994417;28;20299;-83
2020/12/26 06:42:17;;;;;;;13.30;9.82;;;0.50;99.90;;;;;;4994018;28;20208;-82
2020/12/26 06:44:46;;;;;;;21.13;10.38;;;0.40;99.90;;;;;;4994160;28;20286;-82
2020/12/26 06:47:37;;;;;;;19.27;12.27;;;0.50;99.90;;;;;;4993881;28;20231;-82
2020/12/26 06:50:23;;;;;;;15.35;9.23;;;0.50;99.90;;;;;;4984822;28;20661;-83
2020/12/26 06:52:49;;;;;;;16.70;10.88;;;0.50;99.90;;;;;;4993831;28;20235;-84
2020/12/26 06:55:42;;;;;;;16.45;11.50;;;0.50;99.90;;;;;;4993923;28;20251;-82
2020/12/26 06:58:10;;;;;;;15.35;11.40;;;0.60;99.90;;;;;;4994092;28;20205;-82
2020/12/26 07:00:36;;;;;;;14.07;11.35;;;0.60;99.90;;;;;;4993977;28;20339;-81
2020/12/26 07:03:24;;;;;;;16.70;12.18;;;0.60;99.90;;;;;;4993561;28;20739;-81
2020/12/26 07:05:52;;;;;;;20.40;12.15;;;0.70;99.90;;;;;;4991283;28;20537;-82
2020/12/26 07:08:30;;;;;;;18.90;10.15;;;0.70;99.90;;;;;;4993757;28;20347;-81
2020/12/26 07:10:59;;;;;;;22.70;11.27;;;0.70;99.90;;;;;;4993591;28;20567;-81
2020/12/26 07:13:48;;;;;;;18.20;10.95;;;0.70;99.90;;;;;;4993715;28;20727;-81
2020/12/26 07:16:45;;;;;;;22.98;10.43;;;0.70;99.90;;;;;;4993871;28;20200;-81
2020/12/26 07:19:40;;;;;;;15.57;10.80;;;0.70;99.90;;;;;;4993782;28;20204;-82
2020/12/26 07:22:16;;;;;;;20.95;11.20;;;0.80;99.90;;;;;;4992408;28;20204;-81
2020/12/26 07:24:44;;;;;;;19.60;11.65;;;1.00;99.90;;;;;;4998068;28;20614;-81
2020/12/26 07:27:23;;;;;;;20.88;12.85;;;1.00;99.90;;;;;;4990190;28;20306;-80
2020/12/26 07:30:07;;;;;;;18.65;11.60;;;1.10;99.90;;;;;;5003427;28;20212;-82
2020/12/26 07:32:44;;;;;;;21.60;11.50;;;1.10;99.90;;;;;;5000465;28;20242;-82
2020/12/26 07:35:17;;;;;;;20.20;12.77;;;1.20;99.90;;;;;;4993955;28;20287;-82
2020/12/26 07:37:45;;;;;;;17.05;11.70;;;1.20;99.90;;;;;;4992202;28;20304;-83
2020/12/26 07:40:17;;;;;;;18.98;11.18;;;1.20;99.90;;;;;;4993313;28;20618;-83
2020/12/26 07:42:44;;;;;;;15.25;10.68;;;1.30;99.90;;;;;;4993333;28;20559;-83
2020/12/26 07:45:11;;;;;;;16.70;11.18;;;1.30;99.90;;;;;;4993384;28;20735;-81
2020/12/26 07:47:41;;;;;;;21.48;12.75;;;1.20;99.90;;;;;;4992525;28;20899;-83
2020/12/26 07:50:07;;;;;;;21.83;12.15;;;1.30;99.90;;;;;;4994470;28;20208;-83
2020/12/26 07:52:34;;;;;;;18.90;9.18;;;1.40;99.90;;;;;;4993261;28;20243;-83
2020/12/26 07:55:01;;;;;;;26.92;13.63;;;1.40;99.90;;;;;;4993009;28;20291;-83
2020/12/26 07:57:28;;;;;;;19.80;11.40;;;1.50;99.90;;;;;;4993125;28;20295;-82
2020/12/26 07:59:56;;;;;;;18.13;11.80;;;1.60;99.90;;;;;;4993427;28;20291;-82
2020/12/26 08:02:23;;;;;;;18.63;10.07;;;1.70;99.90;;;;;;4993385;28;20265;-82
2020/12/26 08:04:50;;;;;;;17.70;11.02;;;1.80;99.90;;;;;;4993187;28;20290;-82
2020/12/26 08:07:18;;;;;;;14.35;9.75;;;1.80;99.90;;;;;;4991613;28;20319;-82
2020/12/26 08:09:52;;;;;;;19.60;10.80;;;1.80;99.90;;;;;;4992820;28;20375;-82
2020/12/26 08:12:19;;;;;;;19.20;10.95;;;1.80;99.90;;;;;;4992963;28;20282;-82
2020/12/26 08:14:55;;;;;;;16.25;10.65;;;1.70;99.90;;;;;;4993241;28;20295;-82
2020/12/26 08:17:23;;;;;;;15.18;10.38;;;1.70;99.90;;;;;;4993386;28;20695;-82
2020/12/26 08:19:56;;;;;;;17.77;10.98;;;1.70;99.90;;;;;;4993139;28;20287;-82
2020/12/26 08:22:22;;;;;;;22.13;13.45;;;1.70;99.90;;;;;;4991868;28;20631;-82
2020/12/26 08:24:50;;;;;;;15.07;10.18;;;1.70;99.90;;;;;;4993242;28;20239;-82
2020/12/26 08:27:18;;;;;;;20.73;11.48;;;1.60;99.90;;;;;;4992845;28;20286;-82
2020/12/26 08:29:45;;;;;;;19.95;10.88;;;1.60;99.90;;;;;;4993101;28;20208;-82
2020/12/26 08:32:14;;;;;;;21.33;10.68;;;1.60;99.90;;;;;;4993770;28;20299;-82
2020/12/26 08:34:48;;;;;;;16.65;10.95;;;1.60;99.90;;;;;;4996494;28;20680;-82
2020/12/26 08:37:19;;;;;;;17.55;10.43;;;1.60;99.90;;;;;;4995170;28;20212;-81
2020/12/26 08:39:46;;;;;;;20.45;11.20;;;1.70;99.90;;;;;;4996458;28;20243;-79
2020/12/26 08:42:21;;;;;;;17.02;9.63;;;1.60;99.90;;;;;;4975905;28;20687;-80
2020/12/26 08:44:48;;;;;;;21.00;12.50;;;1.70;99.90;;;;;;4977030;28;20287;-80
2020/12/26 08:47:27;;;;;;;17.25;12.40;;;1.70;99.90;;;;;;4976513;28;20327;-80
2020/12/26 08:49:54;;;;;;;15.95;10.80;;;1.70;99.90;;;;;;4976953;28;20208;-82
2020/12/26 08:52:26;;;;;;;20.33;11.02;;;1.80;99.90;;;;;;4975387;28;20255;-80
2020/12/26 08:55:04;;;;;;;21.60;14.65;;;1.90;99.90;;;;;;4976746;28;20252;-80
2020/12/26 08:57:30;;;;;;;21.17;11.00;;;2.00;99.90;;;;;;4974779;28;20719;-80
2020/12/26 09:00:15;;;;;;;14.73;9.73;;;2.10;99.90;;;;;;4975214;28;20355;-82
2020/12/26 09:02:48;;;;;;;25.52;13.18;;;2.20;99.90;;;;;;4974263;28;20284;-81
2020/12/26 09:05:27;;;;;;;14.82;9.88;;;2.20;99.90;;;;;;4974580;28;20235;-80
2020/12/26 09:08:07;;;;;;;14.70;11.38;;;2.40;99.90;;;;;;4976381;28;20243;-81
2020/12/26 09:10:34;;;;;;;14.07;10.65;;;2.50;99.90;;;;;;4993583;28;20231;-82
2020/12/26 09:13:05;;;;;;;17.73;10.88;;;2.60;99.90;;;;;;4997144;28;20204;-83
2020/12/26 09:15:52;;;;;;;16.02;9.50;;;2.80;99.90;;;;;;4995896;28;20837;-82
2020/12/26 09:18:19;;;;;;;13.25;9.40;;;3.00;99.90;;;;;;4994699;28;20287;-82
2020/12/26 09:20:52;;;;;;;11.50;9.38;;;3.00;99.90;;;;;;4914439;29;20266;-81
2020/12/26 09:23:18;;;;;;;16.02;10.52;;;3.00;99.90;;;;;;4916167;29;20298;-82
2020/12/26 09:25:47;;;;;;;14.98;9.55;;;3.00;99.90;;;;;;4914236;29;20298;-81
2020/12/26 09:28:13;;;;;;;14.38;9.05;;;2.90;99.90;;;;;;4915927;29;20260;-80
2020/12/26 09:30:40;;;;;;;14.60;9.35;;;3.00;99.90;;;;;;4916777;29;20238;-81
2020/12/26 09:33:06;;;;;;;15.30;9.77;;;3.00;99.90;;;;;;4917585;29;20294;-83
2020/12/26 09:35:34;;;;;;;12.63;9.05;;;3.00;99.90;;;;;;4907138;29;20686;-81
2020/12/26 09:38:02;;;;;;;13.25;7.15;;;3.00;99.90;;;;;;4917640;29;20210;-80
2020/12/26 09:40:30;;;;;;;11.18;8.23;;;3.00;99.90;;;;;;4918046;29;20295;-83
2020/12/26 09:42:56;;;;;;;10.90;8.20;;;3.00;99.90;;;;;;4916568;29;20306;-81
2020/12/26 09:45:24;;;;;;;9.20;7.45;;;3.10;99.90;;;;;;4958051;28;20236;-82
2020/12/26 09:47:50;;;;;;;9.45;6.20;;;3.20;99.90;;;;;;4995184;28;20319;-80
2020/12/26 09:50:17;;;;;;;19.05;8.48;;;3.20;99.90;;;;;;4995906;28;20240;-81
2020/12/26 09:52:43;;;;;;;11.20;6.82;;;3.10;99.90;;;;;;4994232;28;20254;-81
2020/12/26 09:55:11;;;;;;;11.60;7.72;;;3.20;99.90;;;;;;4995438;28;20228;-80
2020/12/26 09:57:39;;;;;;;12.70;8.15;;;3.20;99.90;;;;;;4995585;28;20215;-82
2020/12/26 10:00:09;;;;;;;14.45;8.57;;;3.30;99.90;;;;;;4994515;28;20204;-84
2020/12/26 10:02:40;;;;;;;12.25;7.22;;;3.50;99.90;;;;;;4955157;28;20664;-87
2020/12/26 10:05:07;;;;;;;8.80;6.75;;;3.50;99.90;;;;;;4953971;28;20578;-83
2020/12/26 10:07:33;;;;;;;12.60;8.48;;;3.60;99.90;;;;;;4953021;28;20288;-82
2020/12/26 10:10:00;;;;;;;11.65;7.93;;;3.70;99.90;;;;;;4957057;29;20237;-85
2020/12/26 10:12:28;;;;;;;11.23;6.60;;;3.60;99.90;;;;;;4917357;29;20301;-79
2020/12/26 10:14:54;;;;;;;11.23;8.23;;;3.80;99.90;;;;;;4918569;29;20259;-82
2020/12/26 10:17:21;;;;;;;9.73;7.65;;;4.20;99.90;;;;;;4918714;29;20215;-83
2020/12/26 10:19:47;;;;;;;11.00;7.93;;;4.00;99.90;;;;;;4926049;28;20306;-82
2020/12/26 10:22:13;;;;;;;13.07;8.77;;;3.90;99.90;;;;;;4976376;28;20243;-81
2020/12/26 10:24:40;;;;;;;7.35;6.03;;;4.00;99.90;;;;;;4979077;28;20276;-82
2020/12/26 10:27:06;;;;;;;9.35;5.80;;;3.90;99.90;;;;;;4979636;28;20290;-82
2020/12/26 10:29:36;;;;;;;10.45;6.65;;;4.00;99.90;;;;;;5016201;28;20258;-81
2020/12/26 10:32:04;;;;;;;10.05;6.75;;;4.00;99.90;;;;;;5016947;28;20234;-81
2020/12/26 10:34:31;;;;;;;8.63;4.78;;;4.00;99.90;;;;;;5016617;28;20655;-82
2020/12/26 10:36:57;;;;;;;8.70;6.22;;;3.90;99.90;;;;;;5016650;28;20615;-82
2020/12/26 10:39:24;;;;;;;13.27;6.63;;;4.00;99.90;;;;;;5019518;28;20294;-82
2020/12/26 10:41:51;;;;;;;9.60;7.30;;;3.90;99.90;;;;;;5035873;28;20207;-81
2020/12/26 10:44:18;;;;;;;9.57;6.15;;;4.00;99.90;;;;;;5036455;28;20203;-81
2020/12/26 10:46:45;;;;;;;8.15;7.13;;;4.20;99.90;;;;;;5036645;28;20234;-82
2020/12/26 10:49:11;;;;;;;21.02;12.43;;;4.20;99.90;;;;;;5023264;28;20637;-82
2020/12/26 10:51:38;;;;;;;18.58;11.50;;;4.20;99.90;;;;;;5014810;28;20625;-80
2020/12/26 10:54:04;;;;;;;12.63;7.72;;;4.30;99.90;;;;;;5014393;28;20246;-82
2020/12/26 10:56:31;;;;;;;13.15;9.35;;;4.30;99.90;;;;;;5012960;28;20239;-82
2020/12/26 10:58:57;;;;;;;16.33;12.27;;;4.20;99.90;;;;;;5014235;28;20814;-81
2020/12/26 11:01:31;;;;;;;12.00;8.95;;;4.30;99.90;;;;;;5014161;28;20678;-80
2020/12/26 11:03:59;;;;;;;8.73;7.32;;;4.30;99.90;;;;;;5014013;28;20685;-82
2020/12/26 11:06:25;;;;;;;7.55;6.25;;;4.40;99.90;;;;;;5014320;28;20210;-81
2020/12/26 11:08:52;;;;;;;9.15;6.78;;;4.40;99.90;;;;;;5001308;28;20240;-82
2020/12/26 11:11:18;;;;;;;11.48;7.43;;;4.30;99.90;;;;;;4995219;28;20204;-80
2020/12/26 11:13:49;;;;;;;14.20;10.13;;;4.40;99.90;;;;;;4995842;28;20240;-88
2020/12/26 11:16:16;;;;;;;22.25;12.35;;;4.50;99.90;;;;;;4982919;28;20209;-83
2020/12/26 11:18:44;;;;;;;11.50;7.85;;;4.50;99.90;;;;;;4980539;28;20204;-83
2020/12/26 11:21:15;;;;;;;12.73;8.95;;;4.50;99.90;;;;;;4992881;28;20651;-82
2020/12/26 11:23:41;;;;;;;21.73;15.90;;;4.40;99.90;;;;;;4993949;28;20204;-82
2020/12/26 11:26:08;;;;;;;10.55;9.40;;;4.60;99.90;;;;;;4994950;28;20865;-83
2020/12/26 11:28:34;;;;;;;29.48;17.75;;;4.60;99.90;;;;;;4994650;28;20322;-83
2020/12/26 11:31:00;;;;;;;20.20;10.30;;;4.50;99.90;;;;;;4994955;28;20291;-83
2020/12/26 11:33:27;;;;;;;7.13;5.95;;;4.50;99.90;;;;;;4995166;28;20679;-83
2020/12/26 11:35:54;;;;;;;7.80;5.90;;;4.50;99.90;;;;;;4990651;28;20916;-84
2020/12/26 11:38:21;;;;;;;9.10;6.15;;;4.60;99.90;;;;;;4995934;28;20208;-85
2020/12/26 11:40:48;;;;;;;7.47;5.90;;;4.80;99.90;;;;;;4994842;28;20227;-85
2020/12/26 11:43:14;;;;;;;18.25;12.35;;;4.90;99.90;;;;;;4994216;28;20216;-84
2020/12/26 11:45:40;;;;;;;25.13;16.73;;;4.80;99.90;;;;;;4995976;28;20291;-84
2020/12/26 11:48:07;;;;;;;15.60;8.27;;;4.80;99.90;;;;;;4993755;28;20321;-85
2020/12/26 11:50:33;;;;;;;10.98;7.45;;;4.70;99.90;;;;;;4993787;28;20219;-84
2020/12/26 11:53:00;;;;;;;10.93;7.97;;;4.70;99.90;;;;;;4994263;28;20207;-84
2020/12/26 11:55:27;;;;;;;8.00;7.03;;;4.70;99.90;;;;;;4995380;28;20592;-84
2020/12/26 11:57:53;;;;;;;8.48;5.93;;;4.60;99.90;;;;;;4994263;28;20832;-84
2020/12/26 12:00:21;;;;;;;10.20;6.45;;;4.60;99.90;;;;;;4994666;28;20212;-85
2020/12/26 12:02:48;;;;;;;9.70;7.03;;;4.70;99.90;;;;;;4994956;28;20358;-85
2020/12/26 12:05:15;;;;;;;18.15;11.40;;;4.80;99.90;;;;;;4993386;28;20620;-84
2020/12/26 12:07:41;;;;;;;10.60;9.07;;;4.90;99.90;;;;;;5000368;28;20263;-85
2020/12/26 12:10:09;;;;;;;10.15;6.35;;;4.90;99.90;;;;;;5003681;28;20208;-84
2020/12/26 12:12:36;;;;;;;14.15;8.95;;;4.70;99.90;;;;;;5005787;28;20278;-84
2020/12/26 12:15:03;;;;;;;8.10;7.18;;;4.60;99.90;;;;;;5001761;28;20247;-83
2020/12/26 12:17:29;;;;;;;8.32;6.00;;;4.70;99.90;;;;;;5011950;28;20692;-84
2020/12/26 12:19:56;;;;;;;10.57;5.00;;;4.80;99.90;;;;;;4998532;28;20204;-85
2020/12/26 12:22:22;;;;;;;6.68;5.35;;;4.80;99.90;;;;;;4996486;28;20299;-84
2020/12/26 12:24:48;;;;;;;16.27;6.13;;;4.90;99.90;;;;;;4997453;28;20204;-84
2020/12/26 12:27:15;;;;;;;5.80;4.75;;;5.10;99.90;;;;;;4986156;28;20201;-86
2020/12/26 12:29:42;;;;;;;15.20;13.70;;;5.00;99.90;;;;;;4970905;28;20216;-85
2020/12/26 12:32:14;;;;;;;10.07;9.07;;;4.90;99.90;;;;;;4970767;28;20236;-84
2020/12/26 12:34:40;;;;;;;8.20;7.20;;;4.90;99.90;;;;;;4980397;28;20220;-85
2020/12/26 12:37:08;;;;;;;10.15;6.65;;;4.90;99.90;;;;;;4977156;28;20292;-84
2020/12/26 12:39:34;;;;;;;7.00;5.93;;;4.90;99.90;;;;;;4968077;28;20460;-82
2020/12/26 12:42:01;;;;;;;7.30;5.57;;;5.00;99.90;;;;;;4967416;28;20990;-83
2020/12/26 12:44:27;;;;;;;5.90;4.40;;;4.90;99.90;;;;;;4969148;28;20201;-83
2020/12/26 12:46:55;;;;;;;14.57;11.98;;;4.90;99.90;;;;;;4963391;28;20252;-80
2020/12/26 12:49:22;;;;;;;7.15;5.30;;;4.80;99.90;;;;;;4957122;28;20340;-81